createdAt,value
2019-05-01T00:01:35.238Z,44.60
2019-05-01T00:03:28.436Z,49.23
2019-05-01T00:05:19.082Z,45.67
2019-05-01T00:06:56.072Z,51.10
2019-05-01T00:08:30.852Z,49.33
2019-05-01T00:10:06.920Z,51.60
2019-05-01T00:11:42.057Z,48.33
2019-05-01T00:13:17.000Z,49.47
2019-05-01T00:14:51.852Z,46.00
2019-05-01T00:16:26.496Z,49.03
2019-05-01T00:18:01.345Z,46.37
2019-05-01T00:19:35.997Z,48.83
2019-05-01T00:21:10.786Z,51.47
2019-05-01T00:22:45.428Z,53.03
2019-05-01T00:24:20.094Z,52.77
2019-05-01T00:25:54.909Z,54.43
2019-05-01T00:27:29.701Z,51.77
2019-05-01T00:29:04.884Z,53.33
2019-05-01T00:30:39.646Z,53.17
2019-05-01T00:32:14.365Z,48.23
2019-05-01T00:33:49.053Z,51.50
2019-05-01T00:35:23.782Z,55.60
2019-05-01T00:36:58.425Z,54.17
2019-05-01T00:38:33.094Z,54.20
2019-05-01T00:40:08.112Z,53.37
2019-05-01T00:41:42.838Z,57.90
2019-05-01T00:43:17.575Z,56.13
2019-05-01T00:44:52.320Z,56.83
2019-05-01T00:46:26.947Z,54.20
2019-05-01T00:48:01.598Z,58.87
2019-05-01T00:49:36.254Z,62.00
2019-05-01T00:51:10.985Z,60.07
2019-05-01T00:52:45.629Z,60.07
2019-05-01T00:54:20.697Z,61.20
2019-05-01T00:56:20.264Z,59.37
2019-05-01T00:58:16.728Z,63.63
2019-05-01T01:00:19.687Z,64.93
2019-05-01T01:02:17.195Z,63.13
2019-05-01T01:03:52.229Z,61.60
2019-05-01T01:05:32.920Z,61.83
2019-05-01T01:07:07.883Z,66.10
2019-05-01T01:08:42.530Z,60.17
2019-05-01T01:10:17.326Z,63.90
2019-05-01T01:11:52.051Z,63.03
2019-05-01T01:13:26.746Z,58.27
2019-05-01T01:15:01.684Z,63.00
2019-05-01T01:16:36.506Z,57.67
2019-05-01T01:18:11.163Z,57.83
2019-05-01T01:19:45.807Z,59.97
2019-05-01T01:21:20.641Z,62.03
2019-05-01T01:22:55.376Z,61.40
2019-05-01T01:24:30.509Z,57.77
2019-05-01T01:26:05.231Z,61.67
2019-05-01T01:27:39.975Z,64.70
2019-05-01T01:29:15.792Z,62.97
2019-05-01T01:30:56.566Z,63.43
2019-05-01T01:32:27.138Z,62.70
2019-05-01T01:34:01.859Z,61.23
2019-05-01T01:35:36.584Z,63.57
2019-05-01T01:37:11.221Z,58.33
2019-05-01T01:38:45.969Z,61.63
2019-05-01T01:40:20.683Z,59.07
2019-05-01T01:41:56.790Z,60.80
2019-05-01T01:43:49.297Z,61.80
2019-05-01T01:45:31.029Z,62.10
2019-05-01T01:47:05.949Z,58.00
2019-05-01T01:48:40.864Z,63.77
2019-05-01T01:50:15.510Z,60.20
2019-05-01T01:51:50.345Z,58.70
2019-05-01T01:53:25.279Z,60.60
2019-05-01T01:54:59.968Z,57.93
2019-05-01T01:56:34.700Z,56.33
2019-05-01T01:58:09.451Z,58.23
2019-05-01T01:59:44.609Z,56.40
2019-05-01T02:01:34.599Z,55.07
2019-05-01T02:03:09.512Z,57.40
2019-05-01T02:05:12.285Z,56.37
2019-05-01T02:06:47.898Z,57.50
2019-05-01T02:08:22.617Z,57.20
2019-05-01T02:09:57.351Z,59.03
2019-05-01T02:11:32.483Z,59.00
2019-05-01T02:13:07.281Z,58.93
2019-05-01T02:14:42.105Z,64.10
2019-05-01T02:16:16.855Z,57.27
2019-05-01T02:17:51.515Z,56.57
2019-05-01T02:19:26.162Z,59.20
2019-05-01T02:21:00.831Z,63.80
2019-05-01T02:22:35.496Z,61.90
2019-05-01T02:24:10.217Z,57.80
2019-05-01T02:25:45.231Z,61.10
2019-05-01T02:27:25.676Z,63.73
2019-05-01T02:29:07.655Z,58.30
2019-05-01T02:30:45.758Z,59.43
2019-05-01T02:32:22.357Z,60.03
2019-05-01T02:33:57.334Z,55.13
2019-05-01T02:35:32.551Z,58.07
2019-05-01T02:37:08.737Z,55.33
2019-05-01T02:38:43.877Z,54.23
2019-05-01T02:40:59.197Z,56.03
2019-05-01T02:42:34.729Z,54.67
2019-05-01T02:44:15.173Z,53.63
2019-05-01T02:45:55.437Z,48.43
2019-05-01T02:47:32.535Z,51.50
2019-05-01T02:49:11.542Z,54.63
2019-05-01T02:50:48.349Z,48.53
2019-05-01T02:52:25.029Z,49.20
2019-05-01T02:54:00.861Z,50.20
2019-05-01T02:55:41.722Z,50.03
2019-05-01T02:57:19.096Z,50.47
2019-05-01T02:58:55.582Z,47.63
2019-05-01T03:00:30.493Z,52.77
2019-05-01T03:02:05.225Z,51.30
2019-05-01T03:03:39.917Z,48.47
2019-05-01T03:05:14.641Z,50.70
2019-05-01T03:06:49.565Z,49.17
2019-05-01T03:08:24.373Z,56.50
2019-05-01T03:09:59.459Z,48.20
2019-05-01T03:11:35.165Z,51.67
2019-05-01T03:13:10.001Z,48.27
2019-05-01T03:14:46.121Z,47.00
2019-05-01T03:16:21.435Z,47.40
2019-05-01T03:18:11.187Z,43.43
2019-05-01T03:19:51.302Z,42.67
2019-05-01T03:21:34.361Z,43.67
2019-05-01T03:23:28.136Z,41.63
2019-05-01T03:25:03.368Z,38.83
2019-05-01T03:26:38.482Z,40.40
2019-05-01T03:28:13.362Z,37.60
2019-05-01T03:29:48.282Z,36.13
2019-05-01T03:31:23.032Z,35.90
2019-05-01T03:32:57.785Z,36.97
2019-05-01T03:34:32.707Z,40.33
2019-05-01T03:36:07.638Z,36.53
2019-05-01T03:37:42.382Z,34.87
2019-05-01T03:39:18.704Z,36.30
2019-05-01T03:40:53.861Z,34.43
2019-05-01T03:42:28.852Z,35.00
2019-05-01T03:44:04.590Z,35.43
2019-05-01T03:45:39.597Z,33.50
2019-05-01T03:47:14.324Z,32.70
2019-05-01T03:48:49.142Z,34.10
2019-05-01T03:50:23.882Z,31.93
2019-05-01T03:51:58.861Z,34.97
2019-05-01T03:53:33.678Z,33.77
2019-05-01T03:55:08.500Z,36.03
2019-05-01T03:56:43.233Z,33.00
2019-05-01T03:58:18.434Z,33.47
2019-05-01T03:59:53.358Z,33.63
2019-05-01T04:01:44.388Z,30.27
2019-05-01T04:03:28.810Z,31.63
2019-05-01T04:05:04.113Z,30.30
2019-05-01T04:06:38.838Z,30.57
2019-05-01T04:08:13.647Z,31.63
2019-05-01T04:09:48.305Z,32.67
2019-05-01T04:11:23.333Z,35.00
2019-05-01T04:12:59.165Z,35.20
2019-05-01T04:14:34.126Z,36.47
2019-05-01T04:16:09.553Z,32.53
2019-05-01T04:17:49.315Z,29.90
2019-05-01T04:19:24.666Z,31.30
2019-05-01T04:20:59.369Z,29.73
2019-05-01T04:22:34.188Z,34.20
2019-05-01T04:24:08.862Z,33.67
2019-05-01T04:25:43.771Z,29.83
2019-05-01T04:27:26.841Z,33.60
2019-05-01T04:29:30.103Z,31.57
2019-05-01T04:31:26.910Z,31.00
2019-05-01T04:33:04.294Z,27.83
2019-05-01T04:34:44.655Z,31.17
2019-05-01T04:36:24.608Z,32.60
2019-05-01T04:37:59.683Z,30.90
2019-05-01T04:39:34.930Z,29.53
2019-05-01T04:41:09.580Z,28.90
2019-05-01T04:42:44.699Z,29.63
2019-05-01T04:44:19.434Z,28.97
2019-05-01T04:45:55.231Z,28.03
2019-05-01T04:47:30.039Z,32.13
2019-05-01T04:49:04.884Z,30.63
2019-05-01T04:50:39.606Z,31.00
2019-05-01T04:52:14.373Z,29.67
2019-05-01T04:53:49.090Z,27.90
2019-05-01T04:55:23.967Z,28.90
2019-05-01T04:56:58.862Z,28.63
2019-05-01T04:58:33.586Z,29.77
2019-05-01T05:00:08.291Z,30.77
2019-05-01T05:01:57.135Z,28.53
2019-05-01T05:03:31.120Z,31.93
2019-05-01T05:05:06.276Z,28.37
2019-05-01T05:06:41.092Z,29.67
2019-05-01T05:08:16.028Z,30.70
2019-05-01T05:09:50.848Z,28.40
2019-05-01T05:11:27.889Z,29.63
2019-05-01T05:13:15.260Z,31.27
2019-05-01T05:14:53.823Z,31.10
2019-05-01T05:16:51.408Z,28.77
2019-05-01T05:18:26.133Z,29.87
2019-05-01T05:20:00.824Z,32.80
2019-05-01T05:21:35.762Z,31.00
2019-05-01T05:23:10.687Z,29.70
2019-05-01T05:24:45.332Z,30.67
2019-05-01T05:26:20.138Z,30.93
2019-05-01T05:27:55.312Z,31.80
2019-05-01T05:29:30.021Z,32.10
2019-05-01T05:31:04.867Z,32.77
2019-05-01T05:32:41.078Z,33.20
2019-05-01T05:34:18.300Z,33.90
2019-05-01T05:35:53.764Z,32.83
2019-05-01T05:37:35.466Z,32.30
2019-05-01T05:39:16.902Z,30.03
2019-05-01T05:40:51.811Z,33.80
2019-05-01T05:42:26.745Z,31.00
2019-05-01T05:44:01.866Z,31.93
2019-05-01T05:45:36.721Z,32.57
2019-05-01T05:47:11.424Z,31.40
2019-05-01T05:48:46.452Z,30.63
2019-05-01T05:50:22.871Z,31.90
2019-05-01T05:52:17.676Z,28.93
2019-05-01T05:53:54.201Z,29.37
2019-05-01T05:55:34.437Z,30.30
2019-05-01T05:57:18.133Z,27.67
2019-05-01T05:58:56.177Z,28.03
2019-05-01T06:00:45.881Z,31.37
2019-05-01T06:02:40.283Z,31.83
2019-05-01T06:04:27.181Z,29.20
2019-05-01T06:06:07.882Z,26.67
2019-05-01T06:08:05.224Z,30.53
2019-05-01T06:09:49.673Z,31.43
2019-05-01T06:11:53.692Z,28.80
2019-05-01T06:13:57.490Z,29.07
2019-05-01T06:15:42.694Z,30.47
2019-05-01T06:17:42.354Z,31.20
2019-05-01T06:19:39.302Z,33.53
2019-05-01T06:21:20.394Z,35.27
2019-05-01T06:23:11.010Z,37.47
2019-05-01T06:24:48.859Z,34.90
2019-05-01T06:26:31.951Z,32.20
2019-05-01T06:28:04.662Z,34.60
2019-05-01T06:29:39.485Z,34.40
2019-05-01T06:31:23.289Z,33.33
2019-05-01T06:32:55.928Z,36.73
2019-05-01T06:34:30.580Z,35.03
2019-05-01T06:36:08.768Z,35.17
2019-05-01T06:38:03.512Z,34.30
2019-05-01T06:39:38.288Z,36.23
2019-05-01T06:41:13.551Z,33.23
2019-05-01T06:42:50.142Z,32.83
2019-05-01T06:44:39.133Z,33.70
2019-05-01T06:46:38.721Z,34.03
2019-05-01T06:48:17.785Z,32.80
2019-05-01T06:50:13.709Z,35.30
2019-05-01T06:51:55.179Z,33.33
2019-05-01T06:53:29.924Z,33.73
2019-05-01T06:55:05.114Z,34.30
2019-05-01T06:56:40.648Z,35.50
2019-05-01T06:58:20.362Z,33.93
2019-05-01T06:59:51.820Z,35.70
2019-05-01T07:01:26.650Z,37.43
2019-05-01T07:03:06.021Z,36.67
2019-05-01T07:04:39.669Z,36.13
2019-05-01T07:06:14.691Z,34.83
2019-05-01T07:07:53.146Z,36.17
2019-05-01T07:09:28.028Z,38.13
2019-05-01T07:11:05.573Z,38.07
2019-05-01T07:12:40.413Z,36.93
2019-05-01T07:14:16.207Z,39.83
2019-05-01T07:15:51.816Z,33.67
2019-05-01T07:17:26.651Z,36.03
2019-05-01T07:19:06.004Z,36.77
2019-05-01T07:20:51.348Z,39.50
2019-05-01T07:22:26.995Z,35.53
2019-05-01T07:24:01.808Z,37.03
2019-05-01T07:25:39.346Z,35.63
2019-05-01T07:27:13.030Z,38.47
2019-05-01T07:28:49.322Z,36.57
2019-05-01T07:30:41.593Z,34.33
2019-05-01T07:32:16.364Z,34.93
2019-05-01T07:33:52.370Z,34.10
2019-05-01T07:35:27.492Z,35.33
2019-05-01T07:37:02.719Z,32.63
2019-05-01T07:38:40.474Z,32.07
2019-05-01T07:40:15.480Z,32.77
2019-05-01T07:41:50.231Z,35.03
2019-05-01T07:43:47.169Z,32.57
2019-05-01T07:45:39.044Z,31.77
2019-05-01T07:47:25.866Z,34.50
2019-05-01T07:49:01.352Z,30.40
2019-05-01T07:50:36.251Z,29.90
2019-05-01T07:52:12.579Z,28.90
2019-05-01T07:53:47.738Z,28.00
2019-05-01T07:55:36.071Z,27.70
2019-05-01T07:57:10.831Z,24.97
2019-05-01T07:58:47.524Z,24.87
2019-05-01T08:00:41.499Z,24.43
2019-05-01T08:02:16.272Z,24.17
2019-05-01T08:03:50.915Z,21.97
2019-05-01T08:05:25.638Z,21.97
2019-05-01T08:07:00.462Z,21.40
2019-05-01T08:08:39.803Z,21.97
2019-05-01T08:10:12.890Z,23.30
2019-05-01T08:11:47.561Z,22.00
2019-05-01T08:13:22.215Z,19.40
2019-05-01T08:14:56.876Z,17.13
2019-05-01T08:16:31.632Z,16.53
2019-05-01T08:18:16.417Z,15.97
2019-05-01T08:19:58.605Z,17.17
2019-05-01T08:21:46.281Z,16.20
2019-05-01T08:23:21.030Z,15.90
2019-05-01T08:24:58.644Z,14.40
2019-05-01T08:26:32.145Z,14.37
2019-05-01T08:28:18.914Z,14.70
2019-05-01T08:30:12.810Z,13.07
2019-05-01T08:31:58.729Z,13.33
2019-05-01T08:33:54.203Z,14.03
2019-05-01T08:35:31.740Z,13.03
2019-05-01T08:37:06.600Z,13.53
2019-05-01T08:38:41.442Z,12.10
2019-05-01T08:40:20.495Z,12.07
2019-05-01T08:41:52.754Z,12.40
2019-05-01T08:43:27.387Z,12.33
2019-05-01T08:45:42.385Z,13.37
2019-05-01T08:47:27.569Z,12.97
2019-05-01T08:49:42.247Z,12.00
2019-05-01T08:51:16.182Z,12.53
2019-05-01T08:52:50.911Z,12.10
2019-05-01T08:54:29.013Z,13.40
2019-05-01T08:56:01.895Z,12.53
2019-05-01T08:57:39.294Z,13.80
2019-05-01T08:59:13.376Z,13.00
2019-05-01T09:00:48.036Z,13.30
2019-05-01T09:02:22.668Z,13.27
2019-05-01T09:03:57.403Z,13.57
2019-05-01T09:05:33.895Z,12.77
2019-05-01T09:07:08.469Z,13.47
2019-05-01T09:08:43.111Z,13.77
2019-05-01T09:10:21.751Z,14.03
2019-05-01T09:11:54.743Z,14.90
2019-05-01T09:13:29.527Z,14.00
2019-05-01T09:15:07.168Z,14.97
2019-05-01T09:16:41.199Z,13.70
2019-05-01T09:18:18.730Z,14.13
2019-05-01T09:19:52.199Z,13.27
2019-05-01T09:21:27.834Z,14.43
2019-05-01T09:23:02.556Z,14.63
2019-05-01T09:24:37.209Z,13.57
2019-05-01T09:26:23.258Z,14.47
2019-05-01T09:28:05.946Z,13.77
2019-05-01T09:29:46.902Z,13.17
2019-05-01T09:31:24.252Z,13.23
2019-05-01T09:32:59.016Z,13.87
2019-05-01T09:34:33.833Z,14.00
2019-05-01T09:36:08.480Z,13.40
2019-05-01T09:37:43.204Z,13.87
2019-05-01T09:39:19.583Z,13.63
2019-05-01T09:40:54.607Z,13.20
2019-05-01T09:42:29.327Z,13.37
2019-05-01T09:44:05.911Z,14.13
2019-05-01T09:45:40.715Z,12.63
2019-05-01T09:47:15.452Z,14.17
2019-05-01T09:48:50.207Z,13.20
2019-05-01T09:50:25.881Z,13.90
2019-05-01T09:52:23.290Z,12.73
2019-05-01T09:54:05.611Z,13.53
2019-05-01T09:55:47.905Z,13.07
2019-05-01T09:57:22.557Z,13.70
2019-05-01T09:58:57.218Z,18.40
2019-05-01T10:00:32.829Z,13.83
2019-05-01T10:02:09.119Z,15.07
2019-05-01T10:03:44.932Z,13.03
2019-05-01T10:05:28.616Z,13.30
2019-05-01T10:06:56.197Z,13.13
2019-05-01T10:08:34.835Z,13.03
2019-05-01T10:10:07.914Z,14.03
2019-05-01T10:11:42.971Z,13.83
2019-05-01T10:13:22.228Z,14.03
2019-05-01T10:14:54.026Z,14.60
2019-05-01T10:16:29.680Z,13.90
2019-05-01T10:18:04.350Z,14.03
2019-05-01T10:19:39.014Z,14.10
2019-05-01T10:21:13.730Z,13.67
2019-05-01T10:22:48.457Z,14.23
2019-05-01T10:24:23.132Z,14.40
2019-05-01T10:25:59.432Z,15.20
2019-05-01T10:27:37.388Z,15.63
2019-05-01T10:29:30.055Z,15.73
2019-05-01T10:31:11.879Z,15.57
2019-05-01T10:35:42.462Z,16.23
2019-05-01T10:37:08.721Z,16.07
2019-05-01T10:38:44.951Z,17.40
2019-05-01T10:40:22.326Z,16.03
2019-05-01T10:41:56.340Z,16.57
2019-05-01T10:43:30.994Z,17.30
2019-05-01T10:45:06.021Z,17.63
2019-05-01T10:46:40.687Z,17.13
2019-05-01T10:48:15.333Z,18.27
2019-05-01T10:49:50.075Z,18.03
2019-05-01T10:51:24.816Z,17.73
2019-05-01T10:52:59.508Z,18.17
2019-05-01T10:54:34.163Z,18.03
2019-05-01T10:56:08.917Z,19.17
2019-05-01T10:59:55.998Z,16.93
2019-05-01T11:01:38.294Z,20.17
2019-05-01T11:03:13.055Z,20.67
2019-05-01T11:04:47.790Z,19.63
2019-05-01T11:06:22.579Z,21.47
2019-05-01T11:07:57.175Z,20.90
2019-05-01T11:09:31.845Z,20.03
2019-05-01T11:11:06.484Z,21.00
2019-05-01T11:12:41.162Z,21.10
2019-05-01T11:14:15.904Z,21.33
2019-05-01T11:15:50.557Z,22.37
2019-05-01T11:17:25.294Z,21.13
2019-05-01T11:18:59.989Z,25.67
2019-05-01T11:20:34.637Z,22.53
2019-05-01T11:22:09.300Z,24.63
2019-05-01T11:23:44.018Z,20.60
2019-05-01T11:25:20.485Z,24.30
2019-05-01T11:26:55.214Z,21.80
2019-05-01T11:28:29.882Z,24.17
2019-05-01T11:30:05.650Z,24.23
2019-05-01T11:32:02.197Z,24.00
2019-05-01T11:33:54.613Z,24.37
2019-05-01T11:35:48.348Z,24.37
2019-05-01T11:37:42.117Z,24.50
2019-05-01T11:39:26.090Z,25.07
2019-05-01T11:41:04.467Z,23.00
2019-05-01T11:42:39.114Z,22.57
2019-05-01T11:44:13.784Z,24.33
2019-05-01T11:45:48.545Z,25.17
2019-05-01T11:47:23.261Z,26.20
2019-05-01T11:48:57.913Z,30.27
2019-05-01T11:50:32.550Z,26.00
2019-05-01T11:52:07.300Z,26.03
2019-05-01T11:53:41.990Z,24.33
2019-05-01T11:55:16.659Z,25.47
2019-05-01T11:56:51.349Z,26.37
2019-05-01T11:58:25.997Z,25.90
2019-05-01T12:00:00.718Z,24.37
2019-05-01T12:01:35.441Z,22.47
2019-05-01T12:03:10.100Z,26.00
2019-05-01T12:04:44.746Z,21.20
2019-05-01T12:06:22.938Z,25.63
2019-05-01T12:07:56.103Z,23.23
2019-05-01T12:09:30.774Z,18.67
2019-05-01T12:11:06.876Z,21.03
2019-05-01T12:12:41.551Z,22.20
2019-05-01T12:14:16.219Z,19.93
2019-05-01T12:15:57.078Z,20.90
2019-05-01T12:17:40.890Z,22.00
2019-05-01T12:19:15.599Z,20.47
2019-05-01T12:20:50.248Z,18.47
2019-05-01T12:22:24.925Z,20.57
2019-05-01T12:23:59.566Z,20.07
2019-05-01T12:25:34.254Z,19.93
2019-05-01T12:27:08.888Z,18.93
2019-05-01T12:28:44.685Z,19.00
2019-05-01T12:30:19.619Z,20.77
2019-05-01T12:31:54.262Z,20.40
2019-05-01T12:33:28.931Z,21.67
2019-05-01T12:35:03.757Z,18.10
2019-05-01T12:36:39.465Z,17.03
2019-05-01T12:38:14.182Z,16.67
2019-05-01T12:39:48.830Z,18.90
2019-05-01T12:41:44.085Z,19.93
2019-05-01T12:43:18.785Z,19.63
2019-05-01T12:44:53.429Z,20.70
2019-05-01T12:46:46.255Z,20.70
2019-05-01T12:48:35.121Z,16.67
2019-05-01T12:50:10.054Z,16.37
2019-05-01T12:51:46.345Z,15.97
2019-05-01T12:53:25.425Z,17.13
2019-05-01T12:55:05.324Z,15.93
2019-05-01T12:56:48.256Z,17.23
2019-05-01T12:58:23.033Z,15.57
2019-05-01T13:00:08.075Z,17.30
2019-05-01T13:01:34.141Z,17.93
2019-05-01T13:03:10.034Z,18.57
2019-05-01T13:04:44.700Z,16.73
2019-05-01T13:06:20.366Z,18.27
2019-05-01T13:07:55.238Z,18.40
2019-05-01T13:09:29.921Z,18.57
2019-05-01T13:11:04.831Z,19.93
2019-05-01T13:12:39.485Z,18.97
2019-05-01T13:14:14.147Z,18.33
2019-05-01T13:15:49.775Z,17.50
2019-05-01T13:17:25.213Z,17.83
2019-05-01T13:18:59.865Z,18.30
2019-05-01T13:20:34.539Z,19.00
2019-05-01T13:22:09.205Z,18.00
2019-05-01T13:23:43.877Z,17.00
2019-05-01T13:25:18.599Z,17.53
2019-05-01T13:27:06.196Z,18.77
2019-05-01T13:28:50.975Z,17.27
2019-05-01T13:30:37.841Z,17.07
2019-05-01T13:32:30.391Z,17.20
2019-05-01T13:34:05.318Z,18.50
2019-05-01T13:35:39.971Z,19.10
2019-05-01T13:37:14.619Z,19.17
2019-05-01T13:38:49.347Z,17.47
2019-05-01T13:40:24.059Z,18.20
2019-05-01T13:41:58.742Z,17.50
2019-05-01T13:43:33.418Z,17.73
2019-05-01T13:45:08.884Z,16.97
2019-05-01T13:46:43.557Z,18.00
2019-05-01T13:48:18.189Z,18.17
2019-05-01T13:49:52.927Z,15.97
2019-05-01T13:51:27.661Z,18.40
2019-05-01T13:53:02.316Z,20.30
2019-05-01T13:54:36.983Z,18.47
2019-05-01T13:56:11.723Z,17.40
2019-05-01T13:57:46.369Z,17.27
2019-05-01T13:59:21.040Z,19.53
2019-05-01T14:00:55.716Z,17.73
2019-05-01T14:02:30.419Z,18.63
2019-05-01T14:04:05.124Z,15.73
2019-05-01T14:05:41.178Z,17.93
2019-05-01T14:07:17.027Z,17.63
2019-05-01T14:08:52.789Z,16.80
2019-05-01T14:10:27.513Z,19.00
2019-05-01T14:12:02.180Z,17.90
2019-05-01T14:13:36.839Z,18.83
2019-05-01T14:15:11.991Z,18.60
2019-05-01T14:16:46.640Z,19.83
2019-05-01T14:18:21.394Z,16.87
2019-05-01T14:20:02.569Z,19.60
2019-05-01T14:21:45.954Z,19.23
2019-05-01T14:23:40.510Z,17.63
2019-05-01T14:25:15.306Z,19.13
2019-05-01T14:26:50.440Z,20.70
2019-05-01T14:28:25.379Z,21.37
2019-05-01T14:30:00.059Z,17.23
2019-05-01T14:31:34.718Z,16.90
2019-05-01T14:33:09.369Z,18.90
2019-05-01T14:34:44.033Z,17.43
2019-05-01T14:36:18.681Z,19.33
2019-05-01T14:37:53.368Z,17.83
2019-05-01T14:39:28.041Z,18.93
2019-05-01T14:41:02.690Z,16.20
2019-05-01T14:42:37.415Z,16.40
2019-05-01T14:44:12.154Z,21.70
2019-05-01T14:45:46.823Z,16.57
2019-05-01T14:47:21.483Z,19.07
2019-05-01T14:49:09.160Z,19.80
2019-05-01T14:50:43.802Z,19.63
2019-05-01T14:52:18.454Z,17.37
2019-05-01T14:53:53.475Z,19.00
2019-05-01T14:55:28.121Z,18.43
2019-05-01T14:57:02.805Z,20.10
2019-05-01T14:58:37.556Z,18.13
2019-05-01T15:00:12.840Z,18.80
2019-05-01T15:01:47.721Z,17.70
2019-05-01T15:03:22.406Z,17.47
2019-05-01T15:04:57.129Z,19.43
2019-05-01T15:06:31.798Z,17.43
2019-05-01T15:08:06.519Z,20.20
2019-05-01T15:09:41.185Z,16.57
2019-05-01T15:11:15.851Z,21.23
2019-05-01T15:12:52.401Z,19.57
2019-05-01T15:14:48.832Z,19.57
2019-05-01T15:16:31.542Z,18.97
2019-05-01T15:18:11.616Z,19.63
2019-05-01T15:19:50.771Z,17.20
2019-05-01T15:21:25.516Z,18.83
2019-05-01T15:23:00.190Z,19.77
2019-05-01T15:24:34.941Z,18.10
2019-05-01T15:26:09.630Z,17.50
2019-05-01T15:27:44.279Z,16.93
2019-05-01T15:29:18.917Z,18.40
2019-05-01T15:30:53.749Z,19.87
2019-05-01T15:32:28.466Z,21.43
2019-05-01T15:34:03.337Z,20.37
2019-05-01T15:35:38.079Z,20.20
2019-05-01T15:37:12.747Z,18.37
2019-05-01T15:38:47.703Z,19.83
2019-05-01T15:40:43.596Z,18.70
2019-05-01T15:42:40.918Z,21.13
2019-05-01T15:44:19.631Z,18.67
2019-05-01T15:45:54.382Z,23.60
2019-05-01T15:47:29.036Z,19.93
2019-05-01T15:49:07.553Z,20.53
2019-05-01T15:50:44.743Z,20.60
2019-05-01T15:52:18.549Z,19.27
2019-05-01T15:53:53.218Z,20.57
2019-05-01T15:55:27.913Z,18.53
2019-05-01T15:57:02.570Z,18.90
2019-05-01T15:58:37.251Z,17.87
2019-05-01T16:00:15.146Z,21.70
2019-05-01T16:01:49.948Z,20.27
2019-05-01T16:03:24.613Z,22.03
2019-05-01T16:04:59.284Z,20.30
2019-05-01T16:06:33.945Z,20.43
2019-05-01T16:08:09.791Z,20.10
2019-05-01T16:09:44.872Z,20.27
2019-05-01T16:11:41.427Z,23.07
2019-05-01T16:13:16.133Z,23.97
2019-05-01T16:14:51.692Z,19.67
2019-05-01T16:16:26.413Z,20.23
2019-05-01T16:18:01.172Z,19.13
2019-05-01T16:19:35.821Z,20.83
2019-05-01T16:21:10.484Z,22.30
2019-05-01T16:22:45.164Z,20.73
2019-05-01T16:24:19.907Z,21.63
2019-05-01T16:25:54.586Z,21.87
2019-05-01T16:27:29.293Z,20.37
2019-05-01T16:29:04.026Z,20.30
2019-05-01T16:30:38.667Z,23.03
2019-05-01T16:32:13.332Z,22.20
2019-05-01T16:33:48.062Z,20.67
2019-05-01T16:35:22.769Z,19.53
2019-05-01T16:36:57.546Z,20.87
2019-05-01T16:38:47.887Z,21.13
2019-05-01T16:40:45.304Z,22.00
2019-05-01T16:42:21.506Z,20.43
2019-05-01T16:43:56.198Z,21.30
2019-05-01T16:45:30.823Z,21.97
2019-05-01T16:47:05.548Z,19.83
2019-05-01T16:48:41.390Z,20.00
2019-05-01T16:50:16.158Z,21.30
2019-05-01T16:51:50.824Z,22.77
2019-05-01T16:53:25.598Z,21.47
2019-05-01T16:55:00.471Z,21.13
2019-05-01T16:56:35.276Z,20.80
2019-05-01T16:58:13.398Z,21.20
2019-05-01T16:59:48.102Z,24.00
2019-05-01T17:01:34.066Z,17.60
2019-05-01T17:03:15.923Z,21.73
2019-05-01T17:05:18.350Z,19.73
2019-05-01T17:06:59.814Z,20.27
2019-05-01T17:08:40.974Z,20.83
2019-05-01T17:10:18.754Z,22.77
2019-05-01T17:11:53.422Z,23.10
2019-05-01T17:13:28.204Z,21.37
2019-05-01T17:15:03.544Z,20.53
2019-05-01T17:16:38.371Z,24.70
2019-05-01T17:18:13.932Z,19.87
2019-05-01T17:19:48.601Z,21.30
2019-05-01T17:21:23.251Z,22.10
2019-05-01T17:22:57.906Z,21.33
2019-05-01T17:24:32.615Z,22.73
2019-05-01T17:26:07.336Z,21.50
2019-05-01T17:27:42.092Z,21.60
2019-05-01T17:29:16.741Z,22.10
2019-05-01T17:30:56.540Z,19.33
2019-05-01T17:32:31.287Z,21.37
2019-05-01T17:34:05.951Z,20.63
2019-05-01T17:35:43.136Z,22.20
2019-05-01T17:37:18.012Z,22.07
2019-05-01T17:38:52.768Z,20.07
2019-05-01T17:40:27.469Z,21.63
2019-05-01T17:42:03.375Z,19.83
2019-05-01T17:43:38.120Z,21.63
2019-05-01T17:45:13.144Z,23.47
2019-05-01T17:46:48.660Z,22.70
2019-05-01T17:48:23.368Z,21.87
2019-05-01T17:49:58.044Z,19.57
2019-05-01T17:51:32.718Z,18.57
2019-05-01T17:53:07.551Z,21.60
2019-05-01T17:54:42.287Z,23.87
2019-05-01T17:56:21.858Z,22.47
2019-05-01T17:57:53.652Z,22.30
2019-05-01T17:59:28.386Z,19.33
2019-05-01T18:01:27.792Z,21.20
2019-05-01T18:03:08.100Z,21.97
2019-05-01T18:04:53.315Z,22.77
2019-05-01T18:06:30.619Z,21.83
2019-05-01T18:08:06.480Z,20.50
2019-05-01T18:09:41.170Z,20.37
2019-05-01T18:11:16.092Z,21.30
2019-05-01T18:12:50.800Z,21.13
2019-05-01T18:14:25.512Z,19.50
2019-05-01T18:16:00.232Z,19.10
2019-05-01T18:17:34.908Z,23.47
2019-05-01T18:19:10.414Z,21.83
2019-05-01T18:20:45.444Z,20.77
2019-05-01T18:22:45.159Z,20.40
2019-05-01T18:24:42.917Z,21.07
2019-05-01T18:26:30.613Z,22.17
2019-05-01T18:28:25.009Z,27.70
2019-05-01T18:30:01.582Z,22.57
2019-05-01T18:31:36.480Z,21.97
2019-05-01T18:33:11.260Z,24.20
2019-05-01T18:34:46.015Z,23.97
2019-05-01T18:36:24.530Z,24.00
2019-05-01T18:38:19.324Z,23.77
2019-05-01T18:39:54.328Z,22.53
2019-05-01T18:41:56.986Z,22.03
2019-05-01T18:43:32.068Z,24.90
2019-05-01T18:45:10.096Z,22.27
2019-05-01T18:46:44.971Z,22.63
2019-05-01T18:48:20.229Z,23.80
2019-05-01T18:49:54.894Z,24.97
2019-05-01T18:51:29.567Z,22.10
2019-05-01T18:53:06.867Z,24.63
2019-05-01T18:54:40.740Z,25.27
2019-05-01T18:56:15.464Z,22.63
2019-05-01T18:57:50.192Z,23.37
2019-05-01T18:59:24.943Z,26.07
2019-05-01T19:01:03.951Z,23.03
2019-05-01T19:02:38.971Z,24.87
2019-05-01T19:04:13.645Z,25.57
2019-05-01T19:05:48.435Z,25.63
2019-05-01T19:07:23.062Z,22.33
2019-05-01T19:08:57.912Z,23.57
2019-05-01T19:10:32.661Z,22.20
2019-05-01T19:12:09.391Z,23.63
2019-05-01T19:13:44.066Z,22.93
2019-05-01T19:15:18.784Z,26.57
2019-05-01T19:16:55.868Z,23.17
2019-05-01T19:18:30.521Z,24.93
2019-05-01T19:20:05.613Z,25.07
2019-05-01T19:21:41.820Z,24.47
2019-05-01T19:23:17.509Z,28.27
2019-05-01T19:24:52.255Z,26.53
2019-05-01T19:26:26.972Z,26.73
2019-05-01T19:28:12.194Z,23.77
2019-05-01T19:29:46.858Z,27.10
2019-05-01T19:31:21.591Z,24.03
2019-05-01T19:32:56.497Z,25.60
2019-05-01T19:34:31.127Z,21.00
2019-05-01T19:36:08.246Z,18.13
2019-05-01T19:37:42.592Z,17.23
2019-05-01T19:39:17.540Z,17.90
2019-05-01T19:40:52.297Z,19.63
2019-05-01T19:42:27.002Z,17.97
2019-05-01T19:44:01.623Z,18.17
2019-05-01T19:45:36.395Z,17.07
2019-05-01T19:47:11.130Z,17.37
2019-05-01T19:48:50.721Z,18.30
2019-05-01T19:50:22.270Z,19.60
2019-05-01T19:52:04.041Z,17.67
2019-05-01T19:53:46.455Z,19.63
2019-05-01T19:55:31.936Z,17.90
2019-05-01T19:57:06.865Z,17.97
2019-05-01T19:58:41.545Z,18.07
2019-05-01T20:00:22.909Z,18.20
2019-05-01T20:01:57.621Z,18.50
2019-05-01T20:03:36.127Z,21.07
2019-05-01T20:05:11.106Z,19.43
2019-05-01T20:06:45.627Z,18.33
2019-05-01T20:08:20.589Z,19.77
2019-05-01T20:09:56.954Z,18.13
2019-05-01T20:11:32.173Z,18.93
2019-05-01T20:13:11.815Z,18.37
2019-05-01T20:14:43.547Z,19.83
2019-05-01T20:16:18.900Z,19.57
2019-05-01T20:17:53.543Z,18.30
2019-05-01T20:19:28.474Z,20.70
2019-05-01T20:21:03.159Z,17.97
2019-05-01T20:22:38.019Z,18.83
2019-05-01T20:24:19.419Z,19.33
2019-05-01T20:25:55.919Z,21.20
2019-05-01T20:27:30.573Z,18.03
2019-05-01T20:29:07.783Z,19.13
2019-05-01T20:30:41.776Z,18.07
2019-05-01T20:32:21.023Z,18.10
2019-05-01T20:33:53.191Z,17.90
2019-05-01T20:35:28.367Z,19.87
2019-05-01T20:37:04.241Z,18.27
2019-05-01T20:38:38.887Z,20.10
2019-05-01T20:40:13.999Z,15.40
2019-05-01T20:41:48.718Z,20.53
2019-05-01T20:43:23.386Z,19.87
2019-05-01T20:45:05.643Z,18.03
2019-05-01T20:46:34.358Z,17.33
2019-05-01T20:48:09.022Z,18.03
2019-05-01T20:49:43.740Z,20.57
2019-05-01T20:51:20.125Z,17.63
2019-05-01T20:52:54.726Z,17.17
2019-05-01T20:54:29.463Z,18.50
2019-05-01T20:56:20.325Z,16.97
2019-05-01T20:58:14.082Z,20.00
2019-05-01T20:59:48.807Z,20.50
2019-05-01T21:01:24.369Z,21.77
2019-05-01T21:03:01.358Z,17.67